Time;durP1;ratioP1;P1;durP2;ratioP2;P2;SDS_P1;SDS_P2;PMS_P1;PMS_P2;Temp;Humidity;BMP_temperature;BMP_pressure;BME280_temperature;BME280_humidity;BME280_pressure;Samples;Min_cycle;Max_cycle;Signal;HPM_P1;HPM_P2
2022/06/09 00:00:25;;;;;;;0.68;0.68;;;;;;;;;;4994698;28;20196;-86
2022/06/09 00:02:56;;;;;;;0.60;0.60;;;;;;;;;;4993570;28;20188;-86
2022/06/09 00:05:25;;;;;;;0.93;0.93;;;;;;;;;;4994303;28;20238;-86
2022/06/09 00:07:53;;;;;;;0.70;0.70;;;;;;;;;;4994374;28;20231;-86
2022/06/09 00:10:25;;;;;;;1.17;1.08;;;;;;;;;;4994299;28;20238;-86
2022/06/09 00:12:52;;;;;;;2.33;1.15;;;;;;;;;;4993494;28;20238;-87
2022/06/09 00:15:21;;;;;;;1.10;1.10;;;;;;;;;;4993934;28;20223;-86
2022/06/09 00:17:49;;;;;;;1.48;1.38;;;;;;;;;;4994049;28;20498;-86
2022/06/09 00:20:17;;;;;;;2.05;1.95;;;;;;;;;;4993940;28;20262;-87
2022/06/09 00:22:45;;;;;;;0.73;0.73;;;;;;;;;;4993684;28;20207;-86
2022/06/09 00:25:13;;;;;;;0.70;0.70;;;;;;;;;;4993847;28;20640;-86
2022/06/09 00:27:41;;;;;;;1.17;1.17;;;;;;;;;;5004157;28;20324;-87
2022/06/09 00:30:12;;;;;;;0.80;0.80;;;;;;;;;;5013318;28;20198;-87
2022/06/09 00:32:41;;;;;;;0.93;0.93;;;;;;;;;;5013122;28;20195;-86
2022/06/09 00:35:10;;;;;;;0.93;0.93;;;;;;;;;;5013692;28;20257;-86
2022/06/09 00:37:37;;;;;;;1.00;1.00;;;;;;;;;;5013371;28;20289;-86
2022/06/09 00:40:08;;;;;;;0.90;0.90;;;;;;;;;;5013777;28;20238;-86
2022/06/09 00:42:36;;;;;;;0.90;0.90;;;;;;;;;;5012774;28;20191;-86
2022/06/09 00:45:28;;;;;;;0.70;0.70;;;;;;;;;;5013821;28;20258;-86
2022/06/09 00:48:06;;;;;;;0.90;0.90;;;;;;;;;;5013602;28;20201;-85
2022/06/09 00:50:36;;;;;;;0.75;0.75;;;;;;;;;;5013127;28;20646;-86
2022/06/09 00:53:09;;;;;;;0.90;0.90;;;;;;;;;;5013428;28;20306;-86
2022/06/09 00:55:36;;;;;;;0.68;0.68;;;;;;;;;;5013451;28;20258;-85
2022/06/09 00:58:08;;;;;;;2.05;0.82;;;;;;;;;;4999146;28;20231;-86
2022/06/09 01:00:43;;;;;;;0.98;0.77;;;;;;;;;;4993909;28;20199;-86
2022/06/09 01:03:12;;;;;;;0.57;0.57;;;;;;;;;;4993268;28;20198;-86
2022/06/09 01:05:41;;;;;;;0.70;0.70;;;;;;;;;;4993609;28;20318;-85
2022/06/09 01:08:10;;;;;;;0.60;0.60;;;;;;;;;;4993963;28;20235;-85
2022/06/09 01:10:38;;;;;;;0.60;0.60;;;;;;;;;;4993848;28;20199;-84
2022/06/09 01:13:06;;;;;;;1.15;1.15;;;;;;;;;;4992841;28;20278;-83
2022/06/09 01:15:42;;;;;;;0.60;0.60;;;;;;;;;;4993385;28;20282;-85
2022/06/09 01:18:24;;;;;;;0.77;0.77;;;;;;;;;;4993105;28;20250;-86
2022/06/09 01:21:02;;;;;;;1.50;1.02;;;;;;;;;;4993608;28;20180;-84
2022/06/09 01:24:01;;;;;;;1.17;0.73;;;;;;;;;;4992670;28;20227;-85
2022/06/09 01:27:18;;;;;;;1.05;0.90;;;;;;;;;;4993969;28;20259;-85
2022/06/09 01:29:54;;;;;;;1.27;0.70;;;;;;;;;;5012586;28;20187;-85
2022/06/09 01:32:27;;;;;;;0.82;0.82;;;;;;;;;;5012190;28;20226;-85
2022/06/09 01:35:10;;;;;;;0.82;0.82;;;;;;;;;;5012768;28;20278;-85
2022/06/09 01:37:41;;;;;;;1.13;1.10;;;;;;;;;;5012604;28;20269;-86
2022/06/09 01:40:12;;;;;;;1.92;0.90;;;;;;;;;;5012939;28;20218;-86
2022/06/09 01:42:42;;;;;;;0.80;0.80;;;;;;;;;;5012333;28;20203;-85
2022/06/09 01:45:14;;;;;;;1.00;1.00;;;;;;;;;;5027501;23;20225;-81
2022/06/09 01:47:50;;;;;;;1.02;0.90;;;;;;;;;;4974147;28;20264;-81
2022/06/09 01:50:25;;;;;;;1.10;1.10;;;;;;;;;;4974759;28;20483;-81
2022/06/09 01:52:54;;;;;;;1.45;1.35;;;;;;;;;;4974063;28;20808;-82
2022/06/09 01:55:23;;;;;;;1.02;1.02;;;;;;;;;;4974308;28;20283;-81
2022/06/09 01:57:54;;;;;;;0.80;0.80;;;;;;;;;;4974218;28;20267;-81
2022/06/09 02:00:22;;;;;;;0.80;0.80;;;;;;;;;;4974341;28;20232;-81
2022/06/09 02:02:55;;;;;;;0.88;0.88;;;;;;;;;;4976964;28;20247;-82
2022/06/09 02:05:26;;;;;;;0.70;0.70;;;;;;;;;;4977219;28;20755;-82
2022/06/09 02:07:56;;;;;;;0.80;0.80;;;;;;;;;;4976784;28;20252;-81
2022/06/09 02:10:32;;;;;;;0.80;0.80;;;;;;;;;;4977142;28;20208;-81
2022/06/09 02:13:03;;;;;;;1.13;1.13;;;;;;;;;;4976209;28;20295;-81
2022/06/09 02:15:36;;;;;;;0.73;0.73;;;;;;;;;;4976868;28;20316;-81
2022/06/09 02:18:12;;;;;;;0.88;0.88;;;;;;;;;;4976649;28;20232;-81
2022/06/09 02:20:45;;;;;;;0.63;0.63;;;;;;;;;;4976173;28;20291;-81
2022/06/09 02:23:14;;;;;;;0.95;0.95;;;;;;;;;;4975746;28;20764;-82
2022/06/09 02:25:42;;;;;;;0.60;0.60;;;;;;;;;;4976568;28;20208;-80
2022/06/09 02:28:10;;;;;;;0.60;0.60;;;;;;;;;;4975877;28;20311;-81
2022/06/09 02:30:39;;;;;;;2.45;0.95;;;;;;;;;;4976120;28;20228;-81
2022/06/09 02:33:08;;;;;;;0.60;0.60;;;;;;;;;;4975144;28;20508;-81
2022/06/09 02:35:37;;;;;;;0.60;0.60;;;;;;;;;;4975933;28;20295;-81
2022/06/09 02:38:04;;;;;;;0.88;0.85;;;;;;;;;;4975883;28;20658;-80
2022/06/09 02:40:33;;;;;;;0.60;0.60;;;;;;;;;;4975827;28;20236;-81
2022/06/09 02:43:00;;;;;;;0.45;0.45;;;;;;;;;;4974847;28;20239;-81
2022/06/09 02:45:29;;;;;;;0.75;0.70;;;;;;;;;;4975358;28;20216;-81
2022/06/09 02:47:56;;;;;;;0.77;0.70;;;;;;;;;;4975728;28;20259;-81
2022/06/09 02:50:25;;;;;;;0.80;0.75;;;;;;;;;;4975451;28;20651;-81
2022/06/09 02:52:53;;;;;;;1.95;1.73;;;;;;;;;;4974790;28;20204;-81
2022/06/09 02:55:21;;;;;;;0.50;0.50;;;;;;;;;;4975554;28;20231;-81
2022/06/09 02:57:48;;;;;;;0.60;0.60;;;;;;;;;;4975024;28;20671;-81
2022/06/09 03:00:17;;;;;;;0.73;0.73;;;;;;;;;;4986240;28;20231;-81
2022/06/09 03:02:51;;;;;;;0.50;0.50;;;;;;;;;;4993146;28;20204;-81
2022/06/09 03:05:18;;;;;;;0.70;0.70;;;;;;;;;;4994778;28;20272;-81
2022/06/09 03:07:48;;;;;;;0.63;0.63;;;;;;;;;;4989479;28;20266;-82
2022/06/09 03:10:16;;;;;;;0.82;0.82;;;;;;;;;;4978874;28;20231;-82
2022/06/09 03:12:43;;;;;;;0.85;0.85;;;;;;;;;;4976653;28;20712;-83
2022/06/09 03:15:13;;;;;;;0.85;0.85;;;;;;;;;;4977152;28;20238;-82
2022/06/09 03:17:41;;;;;;;0.70;0.70;;;;;;;;;;4977880;28;20671;-82
2022/06/09 03:20:15;;;;;;;0.82;0.82;;;;;;;;;;4976594;28;20228;-82
2022/06/09 03:22:42;;;;;;;2.20;0.93;;;;;;;;;;4976712;28;20642;-82
2022/06/09 03:25:11;;;;;;;0.80;0.80;;;;;;;;;;4976770;28;20704;-82
2022/06/09 03:27:39;;;;;;;1.30;1.00;;;;;;;;;;4975799;28;20228;-81
2022/06/09 03:30:09;;;;;;;1.13;1.13;;;;;;;;;;4975379;28;20231;-81
2022/06/09 03:32:37;;;;;;;1.98;1.52;;;;;;;;;;4976811;28;20263;-82
2022/06/09 03:35:06;;;;;;;2.50;1.63;;;;;;;;;;4977035;28;20200;-82
2022/06/09 03:37:34;;;;;;;1.42;1.30;;;;;;;;;;4982912;28;20288;-82
2022/06/09 03:40:02;;;;;;;1.50;1.40;;;;;;;;;;5016353;23;20786;-82
2022/06/09 03:42:30;;;;;;;1.17;1.13;;;;;;;;;;5013544;28;20230;-82
2022/06/09 03:44:58;;;;;;;1.38;1.00;;;;;;;;;;5014321;28;20238;-82
2022/06/09 03:47:25;;;;;;;1.23;1.13;;;;;;;;;;5013813;28;20245;-84
2022/06/09 03:49:53;;;;;;;1.40;1.30;;;;;;;;;;5013621;28;20262;-82
2022/06/09 03:52:20;;;;;;;1.70;1.40;;;;;;;;;;5012886;28;20680;-82
2022/06/09 03:54:48;;;;;;;1.52;1.42;;;;;;;;;;5012598;28;20245;-82
2022/06/09 03:57:16;;;;;;;1.30;1.20;;;;;;;;;;5006590;28;20298;-83
2022/06/09 03:59:45;;;;;;;1.92;1.83;;;;;;;;;;4993905;28;20695;-82
2022/06/09 04:02:12;;;;;;;1.73;1.63;;;;;;;;;;4992975;28;20243;-82
2022/06/09 04:04:40;;;;;;;3.20;1.55;;;;;;;;;;4994299;28;20634;-82
2022/06/09 04:07:08;;;;;;;3.53;2.00;;;;;;;;;;4991650;28;20239;-82
2022/06/09 04:09:35;;;;;;;2.50;2.00;;;;;;;;;;4994021;28;20262;-81
2022/06/09 04:12:03;;;;;;;4.05;2.25;;;;;;;;;;4993599;28;20239;-82
2022/06/09 04:14:31;;;;;;;1.92;1.77;;;;;;;;;;4994114;28;20246;-84
2022/06/09 04:17:00;;;;;;;2.30;2.10;;;;;;;;;;4993861;28;20231;-82
2022/06/09 04:19:27;;;;;;;1.98;1.88;;;;;;;;;;4993019;28;20227;-81
2022/06/09 04:21:55;;;;;;;1.70;1.60;;;;;;;;;;4992926;28;20705;-82
2022/06/09 04:24:22;;;;;;;1.40;1.30;;;;;;;;;;4993218;28;20217;-82
2022/06/09 04:26:50;;;;;;;4.90;3.35;;;;;;;;;;4993449;28;20231;-82
2022/06/09 04:29:17;;;;;;;1.80;1.70;;;;;;;;;;4993250;28;20683;-81
2022/06/09 04:31:45;;;;;;;1.90;1.80;;;;;;;;;;4992435;28;20231;-81
2022/06/09 04:34:14;;;;;;;1.50;1.40;;;;;;;;;;4993017;28;20214;-82
2022/06/09 04:36:42;;;;;;;1.60;1.50;;;;;;;;;;4993393;28;20235;-82
2022/06/09 04:39:10;;;;;;;1.63;1.52;;;;;;;;;;4992561;28;20240;-82
2022/06/09 04:41:39;;;;;;;1.63;1.52;;;;;;;;;;4994976;28;20282;-81
2022/06/09 04:44:07;;;;;;;1.38;1.27;;;;;;;;;;5003967;28;20203;-84
2022/06/09 04:46:35;;;;;;;1.90;1.80;;;;;;;;;;5006685;28;20199;-84
2022/06/09 04:49:03;;;;;;;1.52;1.42;;;;;;;;;;5006637;28;20291;-82
2022/06/09 04:51:32;;;;;;;2.15;1.60;;;;;;;;;;5006075;28;20196;-82
2022/06/09 04:53:59;;;;;;;1.52;1.42;;;;;;;;;;5006677;28;20208;-83
2022/06/09 04:56:27;;;;;;;1.20;1.20;;;;;;;;;;5006403;28;20203;-82
2022/06/09 04:58:55;;;;;;;2.00;1.90;;;;;;;;;;5006141;28;20277;-82
2022/06/09 05:01:25;;;;;;;1.98;1.88;;;;;;;;;;4994609;28;20262;-82
2022/06/09 05:03:53;;;;;;;1.70;1.60;;;;;;;;;;4993538;28;20207;-84
2022/06/09 05:06:23;;;;;;;1.60;1.50;;;;;;;;;;4994368;28;20199;-83
2022/06/09 05:08:54;;;;;;;1.80;1.55;;;;;;;;;;4995200;28;20220;-83
2022/06/09 05:11:22;;;;;;;2.67;1.90;;;;;;;;;;5007963;28;20287;-83
2022/06/09 05:13:50;;;;;;;1.80;1.70;;;;;;;;;;5006090;28;20203;-83
2022/06/09 05:16:18;;;;;;;2.42;2.33;;;;;;;;;;5007262;28;20558;-84
2022/06/09 05:18:46;;;;;;;3.95;3.17;;;;;;;;;;5000707;28;20228;-83
2022/06/09 05:21:13;;;;;;;2.67;2.47;;;;;;;;;;5002861;28;20251;-84
2022/06/09 05:23:41;;;;;;;4.25;3.22;;;;;;;;;;5003405;28;20272;-80
2022/06/09 05:26:10;;;;;;;3.03;2.78;;;;;;;;;;5002648;28;20270;-81
2022/06/09 05:28:38;;;;;;;3.67;3.40;;;;;;;;;;4999333;28;20249;-81
2022/06/09 05:31:05;;;;;;;2.92;2.72;;;;;;;;;;5004283;28;20202;-81
2022/06/09 05:33:33;;;;;;;3.22;2.92;;;;;;;;;;5004249;28;20211;-80
2022/06/09 05:36:01;;;;;;;2.80;2.60;;;;;;;;;;5005777;28;20294;-81
2022/06/09 05:46:48;;;;;;;3.00;2.80;;;;;;;;;;5001280;28;20295;-82
2022/06/09 05:49:19;;;;;;;3.03;2.72;;;;;;;;;;5000784;28;20270;-81
2022/06/09 05:51:47;;;;;;;2.75;2.55;;;;;;;;;;4999278;28;20222;-79
2022/06/09 05:54:15;;;;;;;2.20;2.10;;;;;;;;;;5000382;28;20863;-81
2022/06/09 05:56:44;;;;;;;2.92;2.42;;;;;;;;;;5000071;28;20235;-80
2022/06/09 05:59:12;;;;;;;3.63;2.92;;;;;;;;;;4998916;28;20267;-80
2022/06/09 06:01:39;;;;;;;3.30;3.03;;;;;;;;;;4998746;28;21093;-81
2022/06/09 06:04:09;;;;;;;2.35;2.20;;;;;;;;;;4999269;28;20235;-80
2022/06/09 06:06:36;;;;;;;2.28;2.15;;;;;;;;;;4998856;28;20200;-81
2022/06/09 06:09:07;;;;;;;2.10;1.88;;;;;;;;;;4998324;28;20235;-80
2022/06/09 06:11:36;;;;;;;2.17;1.98;;;;;;;;;;4997556;28;20239;-83
2022/06/09 06:14:08;;;;;;;5.35;3.40;;;;;;;;;;4998020;28;20219;-79
2022/06/09 06:16:36;;;;;;;2.92;2.08;;;;;;;;;;4998328;28;20561;-80
2022/06/09 06:19:04;;;;;;;4.43;3.22;;;;;;;;;;4996902;28;20604;-80
2022/06/09 06:21:32;;;;;;;3.00;2.45;;;;;;;;;;4996988;28;20311;-80
2022/06/09 06:23:59;;;;;;;2.88;2.67;;;;;;;;;;4996563;28;20231;-80
2022/06/09 06:26:27;;;;;;;2.55;2.42;;;;;;;;;;4997083;28;20243;-80
2022/06/09 06:28:55;;;;;;;2.20;2.10;;;;;;;;;;4996914;28;20668;-81
2022/06/09 06:31:24;;;;;;;2.60;2.40;;;;;;;;;;4997655;28;20238;-80
2022/06/09 06:33:51;;;;;;;4.93;3.28;;;;;;;;;;4996805;28;20206;-81
2022/06/09 06:36:19;;;;;;;2.60;2.40;;;;;;;;;;4998865;28;20239;-80
2022/06/09 06:38:48;;;;;;;2.80;2.60;;;;;;;;;;4998493;28;20322;-80
2022/06/09 06:41:16;;;;;;;3.10;2.83;;;;;;;;;;4999486;28;20310;-81
2022/06/09 06:43:44;;;;;;;3.75;3.08;;;;;;;;;;4998026;28;20726;-80
2022/06/09 06:46:12;;;;;;;3.92;3.53;;;;;;;;;;4998343;28;20665;-81
2022/06/09 06:48:41;;;;;;;3.92;2.67;;;;;;;;;;4996405;28;20282;-80
2022/06/09 06:51:08;;;;;;;3.75;3.42;;;;;;;;;;4999087;28;20843;-82
2022/06/09 06:53:36;;;;;;;4.72;3.53;;;;;;;;;;4997302;28;20243;-80
2022/06/09 06:56:05;;;;;;;5.85;3.50;;;;;;;;;;4997176;28;20299;-81
2022/06/09 06:58:33;;;;;;;4.30;3.70;;;;;;;;;;4997107;28;20266;-81
2022/06/09 07:01:02;;;;;;;4.03;3.13;;;;;;;;;;4997339;28;20235;-80
2022/06/09 07:03:30;;;;;;;5.47;3.70;;;;;;;;;;4996623;28;20691;-80
2022/06/09 07:05:59;;;;;;;3.92;3.58;;;;;;;;;;4997028;28;20258;-81
2022/06/09 07:08:27;;;;;;;7.45;5.00;;;;;;;;;;4996401;28;20243;-82
2022/06/09 07:10:56;;;;;;;3.95;3.10;;;;;;;;;;4997837;28;20214;-80
2022/06/09 07:13:24;;;;;;;3.75;3.45;;;;;;;;;;4997220;28;20235;-81
2022/06/09 07:15:52;;;;;;;6.35;3.15;;;;;;;;;;4997902;28;20200;-82
2022/06/09 07:18:19;;;;;;;3.35;3.15;;;;;;;;;;4998129;28;20249;-81
2022/06/09 07:20:47;;;;;;;2.47;2.28;;;;;;;;;;4998062;28;20275;-81
2022/06/09 07:23:16;;;;;;;3.78;3.10;;;;;;;;;;4997367;28;20262;-83
2022/06/09 07:25:44;;;;;;;4.10;3.25;;;;;;;;;;4997350;28;20247;-80
2022/06/09 07:28:12;;;;;;;3.42;3.13;;;;;;;;;;4997215;28;20208;-82
2022/06/09 07:30:40;;;;;;;4.90;2.80;;;;;;;;;;4997248;28;20212;-79
2022/06/09 07:33:08;;;;;;;2.13;1.90;;;;;;;;;;4997316;28;20246;-81
2022/06/09 07:35:38;;;;;;;3.10;2.75;;;;;;;;;;4996599;28;20649;-80
2022/06/09 07:38:09;;;;;;;2.75;2.55;;;;;;;;;;4996337;28;20235;-82
2022/06/09 07:40:41;;;;;;;3.00;2.80;;;;;;;;;;4996398;28;20277;-83
2022/06/09 07:43:09;;;;;;;4.05;3.35;;;;;;;;;;4997295;28;20231;-81
2022/06/09 07:45:37;;;;;;;2.47;2.28;;;;;;;;;;4998451;28;20238;-84
2022/06/09 07:48:05;;;;;;;3.55;2.95;;;;;;;;;;4997344;28;20243;-82
2022/06/09 07:50:33;;;;;;;3.25;2.92;;;;;;;;;;4997382;28;20249;-83
2022/06/09 07:53:01;;;;;;;2.72;2.53;;;;;;;;;;4996237;28;20223;-82
2022/06/09 07:55:29;;;;;;;2.80;2.60;;;;;;;;;;4996565;28;20203;-83
2022/06/09 07:57:58;;;;;;;4.03;3.40;;;;;;;;;;4996778;28;20647;-83
2022/06/09 08:00:27;;;;;;;2.47;2.28;;;;;;;;;;4995150;28;20750;-83
2022/06/09 08:02:55;;;;;;;2.83;2.28;;;;;;;;;;4995264;28;20224;-82
2022/06/09 08:05:25;;;;;;;2.58;2.30;;;;;;;;;;4995936;28;20688;-81
2022/06/09 08:07:53;;;;;;;2.80;2.55;;;;;;;;;;4995875;28;20637;-81
2022/06/09 08:10:27;;;;;;;3.05;2.83;;;;;;;;;;4995949;28;20239;-82
2022/06/09 08:12:59;;;;;;;2.58;2.38;;;;;;;;;;4994371;28;20234;-83
2022/06/09 08:15:28;;;;;;;3.50;3.17;;;;;;;;;;4996878;28;20231;-83
2022/06/09 08:17:57;;;;;;;3.05;2.85;;;;;;;;;;4996552;28;20219;-84
2022/06/09 08:20:28;;;;;;;3.17;2.90;;;;;;;;;;4997062;28;20658;-84
2022/06/09 08:23:02;;;;;;;3.78;2.40;;;;;;;;;;4995583;28;20321;-83
2022/06/09 08:25:29;;;;;;;3.67;2.55;;;;;;;;;;4995694;28;20672;-83
2022/06/09 08:27:58;;;;;;;3.00;2.72;;;;;;;;;;4995510;28;20246;-81
2022/06/09 08:30:26;;;;;;;2.33;2.22;;;;;;;;;;4996579;28;20262;-84
2022/06/09 08:32:54;;;;;;;4.35;2.75;;;;;;;;;;4997318;28;20658;-85
2022/06/09 08:35:22;;;;;;;2.17;2.00;;;;;;;;;;4997214;28;20203;-85
2022/06/09 08:37:51;;;;;;;2.40;2.17;;;;;;;;;;4997385;28;20703;-85
2022/06/09 08:40:23;;;;;;;2.67;2.28;;;;;;;;;;4996976;28;20716;-85
2022/06/09 08:43:11;;;;;;;2.90;2.65;;;;;;;;;;4996279;28;20750;-85
2022/06/09 08:45:43;;;;;;;2.95;2.60;;;;;;;;;;4996759;28;20211;-84
2022/06/09 08:48:16;;;;;;;2.88;2.67;;;;;;;;;;4996862;28;20294;-85
2022/06/09 08:50:49;;;;;;;3.38;3.00;;;;;;;;;;4997246;28;20235;-85
2022/06/09 08:53:21;;;;;;;3.15;2.60;;;;;;;;;;4995841;28;20235;-86
2022/06/09 08:55:51;;;;;;;3.90;2.70;;;;;;;;;;4996206;28;20242;-85
2022/06/09 08:58:27;;;;;;;2.45;2.13;;;;;;;;;;4996432;28;20634;-84
2022/06/09 09:01:08;;;;;;;1.92;1.77;;;;;;;;;;4997147;28;20222;-85
2022/06/09 09:03:38;;;;;;;3.85;2.05;;;;;;;;;;4997797;28;20310;-82
2022/06/09 09:06:11;;;;;;;2.58;2.38;;;;;;;;;;5012318;28;20207;-83
2022/06/09 09:08:40;;;;;;;2.80;2.05;;;;;;;;;;5010728;28;20223;-83
2022/06/09 09:11:25;;;;;;;3.20;2.30;;;;;;;;;;5010126;28;20191;-83
2022/06/09 09:13:59;;;;;;;2.22;2.03;;;;;;;;;;5000610;28;20286;-86
2022/06/09 09:16:48;;;;;;;2.58;2.38;;;;;;;;;;4998332;28;20275;-85
2022/06/09 09:19:25;;;;;;;2.60;2.22;;;;;;;;;;4997999;28;20573;-85
2022/06/09 09:22:12;;;;;;;3.00;2.75;;;;;;;;;;4998176;28;20309;-83
2022/06/09 09:24:46;;;;;;;2.58;2.13;;;;;;;;;;4997125;28;20328;-84
2022/06/09 09:27:23;;;;;;;2.35;2.15;;;;;;;;;;4996741;28;20207;-85
2022/06/09 09:29:59;;;;;;;3.80;3.33;;;;;;;;;;4996676;28;20261;-84
2022/06/09 09:32:30;;;;;;;3.65;3.35;;;;;;;;;;4995895;28;20235;-83
2022/06/09 09:34:59;;;;;;;3.42;2.58;;;;;;;;;;4996322;28;20214;-85
2022/06/09 09:37:34;;;;;;;2.92;2.63;;;;;;;;;;4995589;28;20690;-83
2022/06/09 09:40:15;;;;;;;4.25;2.70;;;;;;;;;;5018455;23;20273;-85
2022/06/09 09:42:44;;;;;;;3.70;2.35;;;;;;;;;;4994884;28;20687;-84
2022/06/09 09:45:20;;;;;;;3.08;2.75;;;;;;;;;;4994676;28;20676;-84
2022/06/09 09:47:51;;;;;;;3.75;2.60;;;;;;;;;;4995486;28;20231;-84
2022/06/09 09:50:25;;;;;;;3.35;2.60;;;;;;;;;;4996541;28;20738;-84
2022/06/09 09:53:04;;;;;;;3.05;2.78;;;;;;;;;;4994359;28;20231;-84
2022/06/09 09:55:38;;;;;;;3.35;2.78;;;;;;;;;;4994743;28;20215;-84
2022/06/09 09:58:38;;;;;;;3.50;2.45;;;;;;;;;;5008583;28;20215;-84
2022/06/09 10:01:34;;;;;;;2.33;2.00;;;;;;;;;;5013463;28;20259;-84
2022/06/09 10:09:40;;;;;;;2.65;2.42;;;;;;;;;;5013624;28;20309;-84
2022/06/09 10:12:16;;;;;;;2.22;2.03;;;;;;;;;;5012993;28;20231;-84
2022/06/09 10:14:53;;;;;;;3.20;2.50;;;;;;;;;;5014402;28;20221;-84
2022/06/09 10:17:29;;;;;;;3.53;3.22;;;;;;;;;;5014319;28;20229;-84
2022/06/09 10:20:07;;;;;;;2.90;2.70;;;;;;;;;;5014538;28;20558;-84
2022/06/09 10:22:38;;;;;;;3.08;2.78;;;;;;;;;;5012993;28;20266;-84
2022/06/09 10:25:19;;;;;;;4.22;3.25;;;;;;;;;;5017280;28;20249;-84
2022/06/09 10:27:53;;;;;;;2.60;2.40;;;;;;;;;;5017576;28;20243;-84
2022/06/09 10:30:28;;;;;;;4.60;3.42;;;;;;;;;;5017556;28;20223;-83
2022/06/09 10:33:03;;;;;;;3.03;2.78;;;;;;;;;;5016810;28;20245;-84
2022/06/09 10:35:36;;;;;;;4.15;3.00;;;;;;;;;;5017370;28;20234;-83
2022/06/09 10:38:11;;;;;;;4.05;3.08;;;;;;;;;;5017397;28;20680;-84
2022/06/09 10:40:44;;;;;;;2.58;2.38;;;;;;;;;;5017105;28;20262;-84
2022/06/09 10:43:20;;;;;;;2.53;2.38;;;;;;;;;;5016217;28;20257;-84
2022/06/09 10:45:53;;;;;;;3.58;2.70;;;;;;;;;;5016415;28;20230;-84
2022/06/09 10:57:11;;;;;;;3.38;3.10;;;;;;;;;;5016112;28;20230;-84
2022/06/09 10:59:44;;;;;;;2.58;2.38;;;;;;;;;;5016042;28;20727;-84
2022/06/09 11:02:17;;;;;;;3.13;2.83;;;;;;;;;;5014615;28;20210;-84
2022/06/09 11:04:47;;;;;;;3.10;2.80;;;;;;;;;;5015709;28;20707;-84
2022/06/09 11:07:29;;;;;;;3.58;3.28;;;;;;;;;;5016273;28;20203;-85
2022/06/09 11:10:12;;;;;;;4.93;3.50;;;;;;;;;;5015557;28;20722;-84
2022/06/09 11:12:49;;;;;;;3.03;2.83;;;;;;;;;;5012588;28;20230;-84
2022/06/09 11:15:28;;;;;;;4.03;3.25;;;;;;;;;;5014226;28;20249;-84
2022/06/09 11:18:11;;;;;;;3.20;2.97;;;;;;;;;;5014316;28;20234;-84
2022/06/09 11:20:56;;;;;;;3.60;3.30;;;;;;;;;;5014140;28;20306;-84
2022/06/09 11:23:48;;;;;;;3.00;2.70;;;;;;;;;;5013610;28;20210;-83
2022/06/09 11:26:27;;;;;;;3.13;2.92;;;;;;;;;;5014090;28;20226;-84
2022/06/09 11:29:07;;;;;;;3.72;3.25;;;;;;;;;;4975356;28;20208;-84
2022/06/09 11:32:01;;;;;;;5.35;3.65;;;;;;;;;;4974887;28;20228;-84
2022/06/09 11:34:48;;;;;;;7.60;4.15;;;;;;;;;;4974521;28;20263;-85
2022/06/09 11:37:31;;;;;;;3.50;2.83;;;;;;;;;;4974832;28;20700;-84
2022/06/09 11:40:13;;;;;;;2.80;2.60;;;;;;;;;;4974888;28;20275;-83
2022/06/09 11:42:58;;;;;;;2.50;2.30;;;;;;;;;;4974404;28;20199;-85
2022/06/09 11:45:32;;;;;;;2.92;2.22;;;;;;;;;;4973794;28;20231;-83
2022/06/09 11:48:01;;;;;;;2.75;2.55;;;;;;;;;;4974890;28;20566;-84
2022/06/09 11:50:35;;;;;;;2.25;2.10;;;;;;;;;;4974723;28;20220;-84
2022/06/09 11:53:05;;;;;;;2.83;2.63;;;;;;;;;;4974013;28;20214;-84
2022/06/09 11:58:46;;;;;;;3.35;3.05;;;;;;;;;;5006029;28;20214;-84
2022/06/09 12:01:31;;;;;;;4.13;3.83;;;;;;;;;;5013917;28;20207;-84
2022/06/09 12:04:14;;;;;;;3.10;2.90;;;;;;;;;;5013104;28;20254;-84
2022/06/09 12:07:01;;;;;;;2.97;2.78;;;;;;;;;;5013249;28;20205;-84
2022/06/09 12:09:41;;;;;;;2.72;2.50;;;;;;;;;;5013176;28;20602;-85
2022/06/09 12:12:30;;;;;;;3.20;2.97;;;;;;;;;;5012606;28;20230;-84
2022/06/09 12:15:26;;;;;;;3.25;3.03;;;;;;;;;;5012983;28;20288;-86
2022/06/09 12:18:03;;;;;;;3.70;3.40;;;;;;;;;;5012014;28;20203;-85
2022/06/09 12:20:40;;;;;;;5.18;3.80;;;;;;;;;;5013011;28;20222;-85
2022/06/09 12:23:27;;;;;;;3.42;3.13;;;;;;;;;;5012393;28;20651;-85
2022/06/09 12:26:30;;;;;;;3.85;3.45;;;;;;;;;;5013050;28;20281;-84
2022/06/09 12:29:19;;;;;;;4.32;3.95;;;;;;;;;;5005413;28;20210;-85
2022/06/09 12:32:46;;;;;;;3.08;2.80;;;;;;;;;;5012483;28;20238;-84
2022/06/09 12:35:25;;;;;;;2.35;2.22;;;;;;;;;;4992579;28;20203;-84
2022/06/09 12:38:04;;;;;;;2.45;2.25;;;;;;;;;;5013018;28;20198;-84
2022/06/09 12:40:43;;;;;;;2.33;2.15;;;;;;;;;;5012709;28;20266;-84
2022/06/09 12:43:29;;;;;;;2.55;2.35;;;;;;;;;;5012167;28;20295;-85
2022/06/09 12:46:16;;;;;;;2.60;2.38;;;;;;;;;;5012070;28;20258;-83
2022/06/09 12:48:44;;;;;;;2.90;2.63;;;;;;;;;;5010265;28;20575;-84
2022/06/09 12:51:21;;;;;;;3.22;3.03;;;;;;;;;;5012792;28;20230;-84
2022/06/09 12:54:02;;;;;;;2.58;2.38;;;;;;;;;;5011873;28;20241;-83
2022/06/09 12:56:56;;;;;;;7.00;4.28;;;;;;;;;;5012772;28;20230;-83
2022/06/09 12:59:29;;;;;;;3.20;3.00;;;;;;;;;;5012657;28;20238;-83
2022/06/09 13:02:20;;;;;;;2.97;2.78;;;;;;;;;;5012372;28;20227;-83
2022/06/09 13:04:54;;;;;;;5.80;3.20;;;;;;;;;;5013220;28;20309;-84
2022/06/09 13:07:24;;;;;;;3.80;3.17;;;;;;;;;;5012693;28;20202;-84
2022/06/09 13:10:03;;;;;;;4.15;2.92;;;;;;;;;;5012695;28;20254;-83
2022/06/09 13:15:34;;;;;;;5.13;3.60;;;;;;;;;;5013330;28;20206;-83
2022/06/09 13:18:04;;;;;;;4.00;2.83;;;;;;;;;;5012429;28;20203;-83
2022/06/09 13:20:32;;;;;;;3.97;3.67;;;;;;;;;;5012820;28;20254;-83
2022/06/09 13:23:00;;;;;;;4.07;3.38;;;;;;;;;;5012074;28;20207;-84
2022/06/09 13:25:29;;;;;;;3.65;3.35;;;;;;;;;;5012375;28;20333;-83
2022/06/09 13:27:57;;;;;;;4.22;3.83;;;;;;;;;;5012327;28;20706;-82
2022/06/09 13:30:44;;;;;;;2.92;2.55;;;;;;;;;;5012682;28;20219;-83
2022/06/09 13:33:32;;;;;;;4.00;3.70;;;;;;;;;;5011722;28;20234;-83
2022/06/09 13:36:25;;;;;;;3.30;3.10;;;;;;;;;;5012375;28;20285;-82
2022/06/09 13:38:53;;;;;;;2.78;2.40;;;;;;;;;;5012380;28;20626;-83
2022/06/09 13:41:30;;;;;;;2.92;2.72;;;;;;;;;;5024523;28;20207;-82
2022/06/09 13:44:06;;;;;;;3.22;2.88;;;;;;;;;;5030106;28;20206;-83
2022/06/09 13:46:48;;;;;;;2.60;2.50;;;;;;;;;;5031471;28;20227;-83
2022/06/09 13:49:24;;;;;;;3.40;2.55;;;;;;;;;;5022944;28;20608;-83
2022/06/09 13:52:03;;;;;;;2.88;2.67;;;;;;;;;;5016461;28;20308;-82
2022/06/09 13:54:33;;;;;;;3.67;3.38;;;;;;;;;;5018992;28;20199;-84
2022/06/09 13:57:01;;;;;;;3.20;3.00;;;;;;;;;;5021598;28;20301;-82
2022/06/09 13:59:28;;;;;;;3.15;2.95;;;;;;;;;;5021776;28;20253;-83
2022/06/09 14:01:57;;;;;;;2.42;2.30;;;;;;;;;;5020146;28;20203;-83
2022/06/09 14:04:29;;;;;;;2.60;2.40;;;;;;;;;;5018785;28;20235;-83
2022/06/09 14:06:57;;;;;;;2.83;2.55;;;;;;;;;;5019601;28;20223;-83
2022/06/09 14:09:24;;;;;;;2.25;2.00;;;;;;;;;;5017620;28;20251;-83
2022/06/09 14:11:53;;;;;;;2.90;2.70;;;;;;;;;;5017911;28;20203;-84
2022/06/09 14:14:21;;;;;;;3.83;2.95;;;;;;;;;;5018039;28;20202;-84
2022/06/09 14:16:49;;;;;;;2.55;2.35;;;;;;;;;;5019008;28;20199;-82
2022/06/09 14:19:19;;;;;;;1.85;1.75;;;;;;;;;;4987017;28;20256;-82
2022/06/09 14:21:47;;;;;;;3.53;2.58;;;;;;;;;;4996718;28;20266;-83
2022/06/09 14:24:18;;;;;;;2.63;1.35;;;;;;;;;;4998391;28;20200;-82
2022/06/09 14:26:47;;;;;;;2.30;1.23;;;;;;;;;;5002097;28;20267;-82
2022/06/09 14:29:17;;;;;;;1.30;1.20;;;;;;;;;;5001948;28;20243;-82
2022/06/09 14:31:46;;;;;;;2.55;1.10;;;;;;;;;;4998122;28;20644;-82
2022/06/09 14:34:15;;;;;;;1.45;1.35;;;;;;;;;;4999389;28;20204;-83
2022/06/09 14:36:45;;;;;;;1.00;1.00;;;;;;;;;;4998766;28;20208;-81
2022/06/09 14:39:16;;;;;;;1.08;1.08;;;;;;;;;;4999036;28;20231;-83
2022/06/09 14:41:44;;;;;;;1.10;1.10;;;;;;;;;;4998072;28;20206;-83
2022/06/09 14:44:12;;;;;;;1.10;1.00;;;;;;;;;;4997633;28;20243;-82
2022/06/09 14:46:43;;;;;;;0.90;0.90;;;;;;;;;;4998563;28;20259;-83
2022/06/09 14:49:16;;;;;;;2.00;1.15;;;;;;;;;;4998157;28;20259;-83
2022/06/09 14:51:45;;;;;;;1.20;1.20;;;;;;;;;;4997097;28;20235;-83
2022/06/09 14:54:13;;;;;;;1.10;0.98;;;;;;;;;;4999192;28;20200;-83
2022/06/09 14:56:44;;;;;;;0.93;0.93;;;;;;;;;;5000490;28;20237;-83
2022/06/09 14:59:12;;;;;;;0.77;0.77;;;;;;;;;;5017458;28;20238;-82
2022/06/09 15:01:40;;;;;;;1.10;1.05;;;;;;;;;;5017211;28;20286;-82
2022/06/09 15:04:08;;;;;;;1.38;1.10;;;;;;;;;;5017696;28;20644;-82
2022/06/09 15:06:36;;;;;;;2.38;1.65;;;;;;;;;;5016541;28;20221;-82
2022/06/09 15:09:07;;;;;;;2.45;1.30;;;;;;;;;;5015307;28;20223;-82
2022/06/09 15:11:35;;;;;;;1.02;1.02;;;;;;;;;;5016208;28;20210;-82
2022/06/09 15:14:03;;;;;;;0.90;0.90;;;;;;;;;;5014636;28;20203;-83
2022/06/09 15:16:32;;;;;;;1.25;1.00;;;;;;;;;;5016280;28;20238;-83
2022/06/09 15:19:00;;;;;;;1.88;1.50;;;;;;;;;;5016384;28;20331;-83
2022/06/09 15:21:29;;;;;;;2.45;1.10;;;;;;;;;;5016817;28;20241;-82
2022/06/09 15:23:57;;;;;;;1.65;1.00;;;;;;;;;;5015792;28;20214;-83
2022/06/09 15:26:26;;;;;;;1.30;1.20;;;;;;;;;;5015563;28;20229;-82
2022/06/09 15:28:55;;;;;;;1.30;1.20;;;;;;;;;;5015629;28;20214;-83
2022/06/09 15:31:23;;;;;;;2.08;1.20;;;;;;;;;;5017735;28;20223;-83
2022/06/09 15:33:50;;;;;;;1.20;1.05;;;;;;;;;;5017011;28;20369;-83
2022/06/09 15:36:23;;;;;;;3.00;1.85;;;;;;;;;;5016624;28;20235;-82
2022/06/09 15:38:52;;;;;;;1.35;1.25;;;;;;;;;;5016301;28;20203;-83
2022/06/09 15:41:20;;;;;;;1.10;1.10;;;;;;;;;;5023126;23;20255;-84